JAI15B VOMM-VCBI
Flight info
| Callsign | JAI15B |
|---|---|
| Flight time | N/A |
| Altitude | 39000 |
| Route | TEGUT2A TEGUT V7 SAGOR SAGOR1A |
| Aircraft | A339/H-SADE1E2E3GHIJ3J5M1P2RWXY/LB2D1 |
Departure
| Time | 2026-04-29 08:53 |
|---|---|
| Airport | Chennai International Airport (VOMM) |
Arrival
| Time | N/A |
|---|---|
| Airport | Bandaranaike International Colombo Airport (VCBI) |
| Time | Latitude | Longitude | Altitude | Speed | Heading |
|---|---|---|---|---|---|
| 2026-04-29 08:21 | 12.98230 | 80.15988 | 60 ft | 0 kts | 157° |
| 2026-04-29 08:37 | 12.98231 | 80.15987 | 60 ft | 1 kts | 157° |
| 2026-04-29 08:38 | 12.98253 | 80.15978 | 51 ft | 1 kts | 158° |
| 2026-04-29 08:38 | 12.98277 | 80.15969 | 51 ft | 4 kts | 140° |
| 2026-04-29 08:38 | 12.98293 | 80.15956 | 51 ft | 4 kts | 96° |
| 2026-04-29 08:38 | 12.98293 | 80.15934 | 51 ft | 4 kts | 64° |
| 2026-04-29 08:39 | 12.98280 | 80.15909 | 51 ft | 3 kts | 69° |
| 2026-04-29 08:39 | 12.98279 | 80.15905 | 51 ft | 0 kts | 71° |
| 2026-04-29 08:41 | 12.98279 | 80.15906 | 51 ft | 1 kts | 71° |
| 2026-04-29 08:42 | 12.98289 | 80.15934 | 51 ft | 7 kts | 71° |
| 2026-04-29 08:42 | 12.98310 | 80.15995 | 51 ft | 11 kts | 70° |
| 2026-04-29 08:42 | 12.98338 | 80.16072 | 56 ft | 12 kts | 70° |
| 2026-04-29 08:42 | 12.98380 | 80.16149 | 54 ft | 11 kts | 34° |
| 2026-04-29 08:43 | 12.98459 | 80.16144 | 56 ft | 13 kts | 342° |
| 2026-04-29 08:43 | 12.98540 | 80.16167 | 53 ft | 14 kts | 52° |
| 2026-04-29 08:43 | 12.98599 | 80.16252 | 54 ft | 16 kts | 56° |
| 2026-04-29 08:43 | 12.98629 | 80.16358 | 56 ft | 16 kts | 87° |
| 2026-04-29 08:44 | 12.98657 | 80.16473 | 60 ft | 17 kts | 70° |
| 2026-04-29 08:44 | 12.98702 | 80.16593 | 58 ft | 18 kts | 70° |
| 2026-04-29 08:44 | 12.98750 | 80.16718 | 56 ft | 19 kts | 69° |
| 2026-04-29 08:44 | 12.98799 | 80.16848 | 59 ft | 20 kts | 69° |
| 2026-04-29 08:45 | 12.98851 | 80.16985 | 54 ft | 21 kts | 69° |
| 2026-04-29 08:45 | 12.98904 | 80.17125 | 60 ft | 21 kts | 69° |
| 2026-04-29 08:45 | 12.98967 | 80.17265 | 58 ft | 22 kts | 63° |
| 2026-04-29 08:45 | 12.99024 | 80.17411 | 58 ft | 22 kts | 70° |
| 2026-04-29 08:46 | 12.99065 | 80.17523 | 58 ft | 22 kts | 69° |
| 2026-04-29 08:46 | 12.99098 | 80.17618 | 61 ft | 34 kts | 76° |
| 2026-04-29 08:46 | 12.99138 | 80.17694 | 61 ft | 8 kts | 33° |
| 2026-04-29 08:47 | 12.99205 | 80.17741 | 57 ft | 14 kts | 41° |
| 2026-04-29 08:47 | 12.99255 | 80.17849 | 60 ft | 20 kts | 69° |
| 2026-04-29 08:47 | 12.99307 | 80.17988 | 62 ft | 22 kts | 69° |
| 2026-04-29 08:47 | 12.99358 | 80.18135 | 66 ft | 22 kts | 77° |
| 2026-04-29 08:48 | 12.99382 | 80.18268 | 58 ft | 10 kts | 60° |
| 2026-04-29 08:48 | 12.99430 | 80.18319 | 61 ft | 4 kts | 44° |
| 2026-04-29 08:48 | 12.99430 | 80.18320 | 61 ft | 0 kts | 44° |
| 2026-04-29 08:50 | 12.99432 | 80.18322 | 60 ft | 1 kts | 44° |
| 2026-04-29 08:50 | 12.99450 | 80.18338 | 65 ft | 6 kts | 43° |
| 2026-04-29 08:50 | 12.99471 | 80.18358 | 65 ft | 0 kts | 43° |
| 2026-04-29 08:51 | 12.99471 | 80.18359 | 64 ft | 0 kts | 43° |
| 2026-04-29 08:51 | 12.99482 | 80.18369 | 59 ft | 5 kts | 43° |
| 2026-04-29 08:51 | 12.99518 | 80.18403 | 66 ft | 10 kts | 43° |
| 2026-04-29 08:52 | 12.99571 | 80.18412 | 61 ft | 5 kts | 329° |
| 2026-04-29 08:52 | 12.99575 | 80.18381 | 64 ft | 5 kts | 279° |
| 2026-04-29 08:52 | 12.99548 | 80.18306 | 66 ft | 37 kts | 250° |
| 2026-04-29 08:52 | 12.99326 | 80.17732 | 62 ft | 132 kts | 249° |
| 2026-04-29 08:53 | 12.98913 | 80.16622 | 148 ft | 193 kts | 245° |
| 2026-04-29 08:53 | 12.98455 | 80.15223 | 483 ft | 215 kts | 250° |
| 2026-04-29 08:53 | 12.98008 | 80.13722 | 944 ft | 225 kts | 250° |
| 2026-04-29 08:53 | 12.97568 | 80.12195 | 1637 ft | 217 kts | 249° |
| 2026-04-29 08:54 | 12.97110 | 80.10723 | 2222 ft | 220 kts | 249° |
| 2026-04-29 08:54 | 12.96587 | 80.09147 | 2482 ft | 246 kts | 249° |
| 2026-04-29 08:54 | 12.96010 | 80.07445 | 2979 ft | 258 kts | 249° |
| 2026-04-29 08:54 | 12.95416 | 80.05705 | 3642 ft | 261 kts | 249° |
| 2026-04-29 08:55 | 12.94804 | 80.03931 | 4294 ft | 266 kts | 249° |
| 2026-04-29 08:55 | 12.94175 | 80.02128 | 4939 ft | 270 kts | 249° |
| 2026-04-29 08:55 | 12.93517 | 80.00292 | 5465 ft | 278 kts | 249° |
| 2026-04-29 08:55 | 12.92823 | 79.98422 | 6047 ft | 283 kts | 249° |
| 2026-04-29 08:56 | 12.92086 | 79.96505 | 6610 ft | 289 kts | 249° |
| 2026-04-29 08:56 | 12.91338 | 79.94558 | 7162 ft | 294 kts | 249° |
| 2026-04-29 08:56 | 12.90584 | 79.92582 | 7724 ft | 300 kts | 249° |
| 2026-04-29 08:56 | 12.89833 | 79.90603 | 8328 ft | 303 kts | 249° |
| 2026-04-29 08:57 | 12.89080 | 79.88578 | 8947 ft | 306 kts | 249° |
| 2026-04-29 08:57 | 12.88202 | 79.86574 | 9509 ft | 311 kts | 236° |
| 2026-04-29 08:57 | 12.86737 | 79.84963 | 9731 ft | 309 kts | 214° |
| 2026-04-29 08:57 | 12.84816 | 79.84047 | 9780 ft | 304 kts | 190° |
| 2026-04-29 08:58 | 12.82725 | 79.83978 | 9779 ft | 304 kts | 167° |
| 2026-04-29 08:58 | 12.80715 | 79.84796 | 9786 ft | 323 kts | 144° |
| 2026-04-29 08:58 | 12.79069 | 79.86437 | 9783 ft | 340 kts | 123° |
| 2026-04-29 08:58 | 12.78103 | 79.88648 | 9766 ft | 341 kts | 102° |
| 2026-04-29 08:59 | 12.77998 | 79.91028 | 9702 ft | 330 kts | 81° |
| 2026-04-29 08:59 | 12.78571 | 79.93252 | 9601 ft | 316 kts | 73° |
| 2026-04-29 08:59 | 12.79164 | 79.95352 | 9435 ft | 298 kts | 73° |
| 2026-04-29 08:59 | 12.79722 | 79.97331 | 9182 ft | 282 kts | 73° |
| 2026-04-29 09:00 | 12.80262 | 79.99246 | 8629 ft | 278 kts | 73° |
| 2026-04-29 09:00 | 12.80790 | 80.01121 | 8047 ft | 278 kts | 73° |
| 2026-04-29 09:00 | 12.81334 | 80.03050 | 7422 ft | 277 kts | 73° |
| 2026-04-29 09:00 | 12.81864 | 80.04946 | 6771 ft | 278 kts | 73° |
| 2026-04-29 09:01 | 12.82394 | 80.06857 | 6165 ft | 279 kts | 73° |
| 2026-04-29 09:01 | 12.82930 | 80.08779 | 5485 ft | 281 kts | 74° |
| 2026-04-29 09:01 | 12.83491 | 80.10697 | 4803 ft | 282 kts | 74° |
| 2026-04-29 09:01 | 12.84072 | 80.12620 | 4280 ft | 280 kts | 74° |
| 2026-04-29 09:02 | 12.84646 | 80.14482 | 4068 ft | 273 kts | 73° |
| 2026-04-29 09:02 | 12.85247 | 80.16412 | 4011 ft | 284 kts | 73° |
| 2026-04-29 09:02 | 12.85835 | 80.18326 | 4006 ft | 278 kts | 73° |
| 2026-04-29 09:02 | 12.86408 | 80.20187 | 4005 ft | 270 kts | 73° |
| 2026-04-29 09:03 | 12.86973 | 80.22006 | 4005 ft | 270 kts | 74° |
| 2026-04-29 09:03 | 12.87543 | 80.23843 | 4003 ft | 273 kts | 73° |
| 2026-04-29 09:03 | 12.88112 | 80.25705 | 4006 ft | 276 kts | 73° |
| 2026-04-29 09:03 | 12.88684 | 80.27574 | 3997 ft | 272 kts | 73° |
| 2026-04-29 09:04 | 12.89248 | 80.29405 | 3938 ft | 265 kts | 73° |
| 2026-04-29 09:04 | 12.89793 | 80.31171 | 3775 ft | 253 kts | 74° |
| 2026-04-29 09:04 | 12.90328 | 80.32878 | 3313 ft | 250 kts | 73° |
| 2026-04-29 09:04 | 12.90863 | 80.34577 | 2790 ft | 249 kts | 73° |
| 2026-04-29 09:05 | 12.91400 | 80.36252 | 2445 ft | 242 kts | 74° |
| 2026-04-29 09:05 | 12.91945 | 80.37870 | 2342 ft | 247 kts | 73° |
| 2026-04-29 09:05 | 12.92800 | 80.39396 | 2314 ft | 253 kts | 48° |
| 2026-04-29 09:05 | 12.94274 | 80.40405 | 2320 ft | 254 kts | 19° |
| 2026-04-29 09:06 | 12.95999 | 80.40611 | 2311 ft | 250 kts | 350° |
| 2026-04-29 09:06 | 12.97649 | 80.40126 | 2309 ft | 253 kts | 338° |
| 2026-04-29 09:06 | 12.99304 | 80.39569 | 2304 ft | 246 kts | 338° |
| 2026-04-29 09:06 | 13.00902 | 80.38931 | 2302 ft | 244 kts | 324° |
| 2026-04-29 09:07 | 13.02074 | 80.37727 | 2300 ft | 236 kts | 298° |
| 2026-04-29 09:07 | 13.02971 | 80.36300 | 2289 ft | 240 kts | 296° |
| 2026-04-29 09:07 | 13.03679 | 80.34780 | 2283 ft | 232 kts | 288° |
| 2026-04-29 09:07 | 13.04255 | 80.33234 | 2271 ft | 231 kts | 279° |
| 2026-04-29 09:08 | 13.04306 | 80.31632 | 2214 ft | 221 kts | 257° |
| 2026-04-29 09:08 | 13.03939 | 80.30166 | 2120 ft | 203 kts | 248° |
| 2026-04-29 09:08 | 13.03480 | 80.28861 | 2005 ft | 187 kts | 245° |
| 2026-04-29 09:08 | 13.03052 | 80.27699 | 1886 ft | 176 kts | 245° |
| 2026-04-29 09:09 | 13.02624 | 80.26548 | 1636 ft | 168 kts | 244° |
| 2026-04-29 09:09 | 13.02220 | 80.25462 | 1413 ft | 157 kts | 244° |
| 2026-04-29 09:09 | 13.01835 | 80.24438 | 1235 ft | 154 kts | 244° |
| 2026-04-29 09:09 | 13.01456 | 80.23435 | 1026 ft | 144 kts | 245° |
| 2026-04-29 09:10 | 13.01237 | 80.22807 | 934 ft | 141 kts | 245° |
| 2026-04-29 09:10 | 13.00858 | 80.21831 | 766 ft | 150 kts | 243° |
| 2026-04-29 09:10 | 13.00498 | 80.20850 | 576 ft | 145 kts | 246° |
| 2026-04-29 09:10 | 13.00024 | 80.19578 | 317 ft | 132 kts | 241° |
| 2026-04-29 09:11 | 12.99796 | 80.18971 | 289 ft | 144 kts | 242° |
| 2026-04-29 09:11 | 12.99362 | 80.17907 | 547 ft | 180 kts | 244° |
| 2026-04-29 09:11 | 12.98841 | 80.16614 | 935 ft | 216 kts | 243° |
| 2026-04-29 09:11 | 12.98258 | 80.15072 | 1347 ft | 241 kts | 245° |
| 2026-04-29 09:12 | 12.97728 | 80.13475 | 2349 ft | 231 kts | 249° |
| 2026-04-29 09:12 | 12.97231 | 80.11926 | 3137 ft | 230 kts | 249° |
| 2026-04-29 09:12 | 12.96686 | 80.10325 | 3583 ft | 248 kts | 249° |
| 2026-04-29 09:12 | 12.96144 | 80.08583 | 3810 ft | 266 kts | 258° |
| 2026-04-29 09:13 | 12.96210 | 80.06680 | 3941 ft | 272 kts | 282° |
| 2026-04-29 09:13 | 12.97067 | 80.04961 | 3977 ft | 275 kts | 307° |
| 2026-04-29 09:13 | 12.98585 | 80.03738 | 3979 ft | 282 kts | 333° |
| 2026-04-29 09:13 | 13.00485 | 80.03279 | 3979 ft | 285 kts | 357° |
| 2026-04-29 09:14 | 13.02460 | 80.03287 | 3982 ft | 283 kts | 1° |
| 2026-04-29 09:14 | 13.04369 | 80.03773 | 3979 ft | 286 kts | 27° |
| 2026-04-29 09:14 | 13.05898 | 80.05027 | 3974 ft | 282 kts | 53° |
| 2026-04-29 09:14 | 13.06810 | 80.06785 | 3971 ft | 279 kts | 70° |
| 2026-04-29 09:15 | 13.07568 | 80.08632 | 3973 ft | 283 kts | 69° |
| 2026-04-29 09:15 | 13.08324 | 80.10488 | 3977 ft | 281 kts | 69° |
| 2026-04-29 09:15 | 13.09071 | 80.12351 | 3973 ft | 284 kts | 69° |
| 2026-04-29 09:15 | 13.09827 | 80.14220 | 3976 ft | 284 kts | 69° |
| 2026-04-29 09:16 | 13.10575 | 80.16084 | 3835 ft | 279 kts | 69° |
| 2026-04-29 09:16 | 13.11289 | 80.17881 | 3723 ft | 264 kts | 69° |
| 2026-04-29 09:16 | 13.11968 | 80.19570 | 3484 ft | 249 kts | 69° |
| 2026-04-29 09:16 | 13.12632 | 80.21209 | 2958 ft | 250 kts | 69° |
| 2026-04-29 09:17 | 13.13285 | 80.22829 | 2531 ft | 245 kts | 69° |
| 2026-04-29 09:17 | 13.13948 | 80.24436 | 2354 ft | 237 kts | 69° |
| 2026-04-29 09:17 | 13.14611 | 80.26000 | 2295 ft | 246 kts | 69° |
| 2026-04-29 09:17 | 13.15320 | 80.27660 | 2295 ft | 249 kts | 69° |
| 2026-04-29 09:18 | 13.16011 | 80.29277 | 2287 ft | 246 kts | 69° |
| 2026-04-29 09:18 | 13.16467 | 80.30941 | 2295 ft | 242 kts | 90° |
| 2026-04-29 09:18 | 13.16165 | 80.32581 | 2294 ft | 238 kts | 119° |
| 2026-04-29 09:18 | 13.15130 | 80.33858 | 2289 ft | 228 kts | 149° |
| 2026-04-29 09:19 | 13.13761 | 80.34667 | 2296 ft | 224 kts | 154° |
| 2026-04-29 09:19 | 13.12446 | 80.35429 | 2288 ft | 208 kts | 154° |
| 2026-04-29 09:19 | 13.11234 | 80.36135 | 2286 ft | 194 kts | 155° |
| 2026-04-29 09:19 | 13.10011 | 80.36473 | 2290 ft | 175 kts | 185° |
| 2026-04-29 09:20 | 13.08910 | 80.36026 | 2299 ft | 174 kts | 217° |
| 2026-04-29 09:20 | 13.07977 | 80.35212 | 2294 ft | 179 kts | 219° |
| 2026-04-29 09:20 | 13.07014 | 80.34374 | 2290 ft | 179 kts | 219° |
| 2026-04-29 09:20 | 13.06073 | 80.33557 | 2281 ft | 177 kts | 219° |
| 2026-04-29 09:21 | 13.05194 | 80.32681 | 2286 ft | 177 kts | 230° |
| 2026-04-29 09:21 | 13.04563 | 80.31594 | 2284 ft | 179 kts | 242° |
| 2026-04-29 09:21 | 13.04071 | 80.30396 | 2297 ft | 181 kts | 246° |
| 2026-04-29 09:21 | 13.03631 | 80.29214 | 2116 ft | 177 kts | 246° |
| 2026-04-29 09:22 | 13.03199 | 80.28047 | 1923 ft | 171 kts | 246° |
| 2026-04-29 09:22 | 13.02777 | 80.26929 | 1701 ft | 164 kts | 245° |
| 2026-04-29 09:22 | 13.02370 | 80.25839 | 1497 ft | 154 kts | 245° |
| 2026-04-29 09:22 | 13.02003 | 80.24867 | 1491 ft | 148 kts | 243° |
| 2026-04-29 09:23 | 13.01618 | 80.23864 | 1841 ft | 147 kts | 245° |
| 2026-04-29 09:23 | 13.01155 | 80.22709 | 1462 ft | 197 kts | 243° |
| 2026-04-29 09:23 | 13.00629 | 80.21364 | 794 ft | 209 kts | 246° |
| 2026-04-29 09:23 | 13.00165 | 80.19993 | 413 ft | 192 kts | 248° |
| 2026-04-29 09:24 | 12.99748 | 80.18796 | 181 ft | 167 kts | 242° |
| 2026-04-29 09:24 | 12.99348 | 80.17787 | 67 ft | 147 kts | 244° |
| 2026-04-29 09:24 | 12.99035 | 80.16956 | 58 ft | 95 kts | 249° |
| 2026-04-29 09:24 | 12.98866 | 80.16508 | 61 ft | 52 kts | 240° |
| 2026-04-29 09:25 | 12.98744 | 80.16357 | 55 ft | 23 kts | 219° |
| 2026-04-29 09:25 | 12.98631 | 80.16263 | 53 ft | 16 kts | 223° |
| 2026-04-29 09:25 | 12.98554 | 80.16182 | 57 ft | 16 kts | 236° |
| 2026-04-29 09:25 | 12.98456 | 80.16150 | 57 ft | 16 kts | 167° |
| 2026-04-29 09:26 | 12.98393 | 80.16156 | 54 ft | 10 kts | 194° |
| 2026-04-29 09:26 | 12.98345 | 80.16090 | 54 ft | 4 kts | 245° |
| 2026-04-29 09:26 | 12.98332 | 80.16056 | 54 ft | 1 kts | 250° |
| 2026-04-29 09:26 | 12.98325 | 80.16037 | 53 ft | 4 kts | 250° |
| 2026-04-29 09:27 | 12.98303 | 80.16026 | 51 ft | 2 kts | 194° |
| 2026-04-29 09:27 | 12.98290 | 80.16035 | 54 ft | 3 kts | 156° |
| 2026-04-29 09:27 | 12.98262 | 80.16050 | 57 ft | 4 kts | 154° |
| 2026-04-29 09:27 | 12.98256 | 80.16053 | 53 ft | 2 kts | 155° |
| 2026-04-29 09:28 | 12.98253 | 80.16054 | 53 ft | 1 kts | 156° |
| 2026-04-29 09:28 | 12.98252 | 80.16055 | 53 ft | 0 kts | 156° |